createdAt,value
2018-12-21T00:00:33.387Z,1007.04
2018-12-21T00:01:33.424Z,1007.14
2018-12-21T00:02:33.369Z,1007.20
2018-12-21T00:03:33.357Z,1007.16
2018-12-21T00:04:33.355Z,1007.17
2018-12-21T00:05:33.345Z,1007.12
2018-12-21T00:06:33.335Z,1007.04
2018-12-21T00:07:33.340Z,1007.06
2018-12-21T00:08:33.369Z,1007.03
2018-12-21T00:09:33.299Z,1007.04
2018-12-21T00:10:33.285Z,1007.02
2018-12-21T00:11:33.326Z,1007.03
2018-12-21T00:12:33.383Z,1006.99
2018-12-21T00:13:33.269Z,1007.02
2018-12-21T00:14:33.261Z,1007.02
2018-12-21T00:15:33.224Z,1007.02
2018-12-21T00:16:33.222Z,1007.03
2018-12-21T00:17:34.634Z,1007.08
2018-12-21T00:18:33.247Z,1007.10
2018-12-21T00:19:33.190Z,1007.06
2018-12-21T00:20:33.189Z,1007.02
2018-12-21T00:21:33.235Z,1007.03
2018-12-21T00:22:33.151Z,1007.02
2018-12-21T00:23:33.216Z,1006.97
2018-12-21T00:24:33.152Z,1006.97
2018-12-21T00:25:33.147Z,1006.96
2018-12-21T00:26:33.112Z,1006.95
2018-12-21T00:27:33.133Z,1006.92
2018-12-21T00:28:33.121Z,1006.89
2018-12-21T00:29:33.081Z,1006.90
2018-12-21T00:30:33.083Z,1006.92
2018-12-21T00:31:33.080Z,1006.84
2018-12-21T00:32:33.040Z,1006.87
2018-12-21T00:33:33.058Z,1006.79
2018-12-21T00:34:33.056Z,1006.73
2018-12-21T00:35:33.009Z,1006.70
2018-12-21T00:36:32.999Z,1006.66
2018-12-21T00:37:32.985Z,1006.63
2018-12-21T00:38:32.996Z,1006.62
2018-12-21T00:39:32.997Z,1006.67
2018-12-21T00:40:32.953Z,1006.68
2018-12-21T00:41:32.946Z,1006.73
2018-12-21T00:42:32.933Z,1006.64
2018-12-21T00:43:32.928Z,1006.60
2018-12-21T00:44:32.980Z,1006.59
2018-12-21T00:45:32.902Z,1006.55
2018-12-21T00:46:32.888Z,1006.56
2018-12-21T00:47:32.930Z,1006.56
2018-12-21T00:48:32.872Z,1006.57
2018-12-21T00:49:32.862Z,1006.57
2018-12-21T00:50:32.893Z,1006.55
2018-12-21T00:51:32.910Z,1006.53
2018-12-21T00:52:32.834Z,1006.54
2018-12-21T00:53:32.840Z,1006.58
2018-12-21T00:54:32.814Z,1006.55
2018-12-21T00:55:32.820Z,1006.54
2018-12-21T00:56:32.788Z,1006.53
2018-12-21T00:57:32.792Z,1006.53
2018-12-21T00:58:32.782Z,1006.53
2018-12-21T00:59:32.808Z,1006.47
2018-12-21T01:00:32.780Z,1006.46
2018-12-21T01:01:32.752Z,1006.43
2018-12-21T01:02:32.716Z,1006.47
2018-12-21T01:03:32.715Z,1006.48
2018-12-21T01:04:32.880Z,1006.49
2018-12-21T01:05:32.734Z,1006.48
2018-12-21T01:06:32.721Z,1006.46
2018-12-21T01:07:32.688Z,1006.44
2018-12-21T01:08:32.660Z,1006.46
2018-12-21T01:09:32.732Z,1006.48
2018-12-21T01:10:32.640Z,1006.48
2018-12-21T01:11:32.627Z,1006.45
2018-12-21T01:12:32.660Z,1006.51
2018-12-21T01:13:32.643Z,1006.45
2018-12-21T01:14:32.609Z,1006.46
2018-12-21T01:15:32.627Z,1006.50
2018-12-21T01:16:32.571Z,1006.45
2018-12-21T01:17:32.730Z,1006.41
2018-12-21T01:18:32.547Z,1006.43
2018-12-21T01:19:32.541Z,1006.42
2018-12-21T01:20:32.527Z,1006.42
2018-12-21T01:21:38.753Z,1006.39
2018-12-21T01:22:33.558Z,1006.42
2018-12-21T01:23:32.528Z,1006.36
2018-12-21T01:24:32.516Z,1006.41
2018-12-21T01:25:32.496Z,1006.39
2018-12-21T01:26:32.478Z,1006.32
2018-12-21T01:27:32.476Z,1006.36
2018-12-21T01:28:32.470Z,1006.34
2018-12-21T01:29:32.445Z,1006.36
2018-12-21T01:30:32.418Z,1006.35
2018-12-21T01:31:32.419Z,1006.34
2018-12-21T01:32:32.396Z,1006.31
2018-12-21T01:33:32.534Z,1006.32
2018-12-21T01:34:32.408Z,1006.29
2018-12-21T01:35:32.366Z,1006.27
2018-12-21T01:36:32.375Z,1006.23
2018-12-21T01:37:32.390Z,1006.23
2018-12-21T01:38:32.339Z,1006.17
2018-12-21T01:39:32.403Z,1006.21
2018-12-21T01:40:32.346Z,1006.14
2018-12-21T01:41:32.300Z,1006.12
2018-12-21T01:42:32.287Z,1006.18
2018-12-21T01:43:32.380Z,1006.22
2018-12-21T01:44:32.306Z,1006.10
2018-12-21T01:45:32.291Z,1006.18
2018-12-21T01:46:32.248Z,1006.19
2018-12-21T01:47:32.266Z,1006.15
2018-12-21T01:48:32.243Z,1006.14
2018-12-21T01:49:32.217Z,1006.11
2018-12-21T01:50:32.264Z,1006.09
2018-12-21T01:51:32.191Z,1006.01
2018-12-21T01:52:32.179Z,1005.99
2018-12-21T01:53:32.230Z,1005.99
2018-12-21T01:54:32.175Z,1005.91
2018-12-21T01:55:32.181Z,1005.92
2018-12-21T01:56:32.157Z,1005.88
2018-12-21T01:57:32.167Z,1005.87
2018-12-21T01:58:32.119Z,1005.82
2018-12-21T01:59:32.115Z,1005.86
2018-12-21T02:00:32.236Z,1005.87
2018-12-21T02:01:32.107Z,1005.84
2018-12-21T02:02:32.087Z,1005.79
2018-12-21T02:03:32.126Z,1005.75
2018-12-21T02:04:32.128Z,1005.76
2018-12-21T02:05:32.104Z,1005.73
2018-12-21T02:06:32.043Z,1005.77
2018-12-21T02:07:32.022Z,1005.73
2018-12-21T02:08:32.023Z,1005.68
2018-12-21T02:09:32.035Z,1005.61
2018-12-21T02:10:32.108Z,1005.59
2018-12-21T02:11:31.978Z,1005.65
2018-12-21T02:12:31.978Z,1005.58
2018-12-21T02:13:31.977Z,1005.60
2018-12-21T02:14:31.955Z,1005.55
2018-12-21T02:15:31.963Z,1005.56
2018-12-21T02:16:31.931Z,1005.58
2018-12-21T02:17:31.918Z,1005.57
2018-12-21T02:18:31.922Z,1005.51
2018-12-21T02:19:31.909Z,1005.49
2018-12-21T02:20:31.922Z,1005.50
2018-12-21T02:21:31.876Z,1005.42
2018-12-21T02:22:31.863Z,1005.38
2018-12-21T02:23:31.863Z,1005.36
2018-12-21T02:24:31.840Z,1005.29
2018-12-21T02:25:31.892Z,1005.24
2018-12-21T02:26:31.849Z,1005.24
2018-12-21T02:27:31.835Z,1005.26
2018-12-21T02:28:31.820Z,1005.22
2018-12-21T02:29:31.784Z,1005.22
2018-12-21T02:30:31.778Z,1005.15
2018-12-21T02:31:31.818Z,1005.09
2018-12-21T02:32:31.788Z,1005.15
2018-12-21T02:33:31.781Z,1005.10
2018-12-21T02:34:31.748Z,1005.11
2018-12-21T02:35:31.740Z,1005.07
2018-12-21T02:36:31.779Z,1005.06
2018-12-21T02:37:31.701Z,1005.02
2018-12-21T02:38:31.699Z,1004.99
2018-12-21T02:39:31.681Z,1004.95
2018-12-21T02:40:31.687Z,1004.95
2018-12-21T02:41:31.675Z,1004.91
2018-12-21T02:42:31.684Z,1004.94
2018-12-21T02:43:31.645Z,1004.93
2018-12-21T02:44:31.628Z,1004.90
2018-12-21T02:45:31.671Z,1004.86
2018-12-21T02:46:31.657Z,1004.82
2018-12-21T02:47:31.627Z,1004.80
2018-12-21T02:48:31.581Z,1004.78
2018-12-21T02:49:31.594Z,1004.71
2018-12-21T02:50:31.639Z,1004.77
2018-12-21T02:51:31.550Z,1004.73
2018-12-21T02:52:31.562Z,1004.67
2018-12-21T02:53:31.602Z,1004.64
2018-12-21T02:54:31.549Z,1004.66
2018-12-21T02:55:31.511Z,1004.63
2018-12-21T02:56:31.529Z,1004.57
2018-12-21T02:57:31.511Z,1004.48
2018-12-21T02:58:31.517Z,1004.46
2018-12-21T02:59:31.487Z,1004.42
2018-12-21T03:00:31.469Z,1004.39
2018-12-21T03:01:31.454Z,1004.33
2018-12-21T03:02:31.528Z,1004.33
2018-12-21T03:03:31.460Z,1004.31
2018-12-21T03:04:31.419Z,1004.28
2018-12-21T03:05:31.432Z,1004.25
2018-12-21T03:06:31.431Z,1004.26
2018-12-21T03:07:31.419Z,1004.17
2018-12-21T03:08:31.421Z,1004.18
2018-12-21T03:09:31.361Z,1004.19
2018-12-21T03:10:31.360Z,1004.23
2018-12-21T03:11:31.382Z,1004.20
2018-12-21T03:12:31.390Z,1004.22
2018-12-21T03:13:31.336Z,1004.16
2018-12-21T03:14:31.311Z,1004.12
2018-12-21T03:15:31.307Z,1004.12
2018-12-21T03:16:31.314Z,1004.09
2018-12-21T03:17:31.280Z,1004.16
2018-12-21T03:18:31.304Z,1004.13
2018-12-21T03:19:31.246Z,1004.09
2018-12-21T03:20:31.251Z,1004.04
2018-12-21T03:21:31.230Z,1004.05
2018-12-21T03:22:31.248Z,1004.05
2018-12-21T03:23:31.270Z,1003.99
2018-12-21T03:24:31.195Z,1004.04
2018-12-21T03:25:31.192Z,1003.95
2018-12-21T03:26:31.184Z,1003.99
2018-12-21T03:27:31.170Z,1003.92
2018-12-21T03:28:31.216Z,1003.93
2018-12-21T03:29:31.145Z,1003.91
2018-12-21T03:30:31.144Z,1003.86
2018-12-21T03:31:31.122Z,1003.83
2018-12-21T03:32:31.109Z,1003.75
2018-12-21T03:33:31.170Z,1003.72
2018-12-21T03:34:31.194Z,1003.67
2018-12-21T03:35:31.086Z,1003.70
2018-12-21T03:36:31.271Z,1003.60
2018-12-21T03:37:31.076Z,1003.52
2018-12-21T03:38:31.100Z,1003.48
2018-12-21T03:39:31.076Z,1003.52
2018-12-21T03:40:31.026Z,1003.43
2018-12-21T03:41:31.011Z,1003.46
2018-12-21T03:42:31.000Z,1003.40
2018-12-21T03:43:31.003Z,1003.38
2018-12-21T03:44:31.022Z,1003.28
2018-12-21T03:45:30.977Z,1003.28
2018-12-21T03:46:30.955Z,1003.20
2018-12-21T03:47:30.962Z,1003.20
2018-12-21T03:48:30.973Z,1003.15
2018-12-21T03:49:30.940Z,1003.15
2018-12-21T03:50:30.962Z,1003.12
2018-12-21T03:51:30.906Z,1003.09
2018-12-21T03:52:31.020Z,1003.11
2018-12-21T03:53:30.885Z,1003.05
2018-12-21T03:54:30.872Z,1003.07
2018-12-21T03:55:30.945Z,1003.15
2018-12-21T03:56:30.855Z,1003.13
2018-12-21T03:57:30.846Z,1003.05
2018-12-21T03:58:30.841Z,1003.09
2018-12-21T03:59:30.859Z,1003.09
2018-12-21T04:00:30.883Z,1003.09
2018-12-21T04:01:30.808Z,1003.14
2018-12-21T04:02:30.783Z,1003.11
2018-12-21T04:03:30.786Z,1003.14
2018-12-21T04:04:30.805Z,1003.10
2018-12-21T04:05:30.789Z,1003.00
2018-12-21T04:06:30.749Z,1003.00
2018-12-21T04:07:30.735Z,1002.92
2018-12-21T04:08:30.726Z,1002.95
2018-12-21T04:09:30.719Z,1002.89
2018-12-21T04:10:30.698Z,1002.86
2018-12-21T04:11:30.787Z,1002.79
2018-12-21T04:12:30.675Z,1002.69
2018-12-21T04:13:30.666Z,1002.72
2018-12-21T04:14:30.758Z,1002.70
2018-12-21T04:15:30.679Z,1002.62
2018-12-21T04:16:30.654Z,1002.52
2018-12-21T04:17:30.676Z,1002.49
2018-12-21T04:18:30.666Z,1002.45
2018-12-21T04:19:30.602Z,1002.42
2018-12-21T04:20:30.608Z,1002.41
2018-12-21T04:21:30.592Z,1002.37
2018-12-21T04:22:34.252Z,1002.35
2018-12-21T04:23:30.572Z,1002.38
2018-12-21T04:24:30.547Z,1002.39
2018-12-21T04:25:30.584Z,1002.33
2018-12-21T04:26:30.529Z,1002.31
2018-12-21T04:27:30.603Z,1002.23
2018-12-21T04:28:30.560Z,1002.22
2018-12-21T04:29:30.527Z,1002.20
2018-12-21T04:30:30.482Z,1002.15
2018-12-21T04:31:30.493Z,1002.12
2018-12-21T04:32:30.495Z,1002.15
2018-12-21T04:33:30.490Z,1002.13
2018-12-21T04:34:30.464Z,1002.16
2018-12-21T04:35:30.511Z,1002.13
2018-12-21T04:36:30.436Z,1002.12
2018-12-21T04:37:30.469Z,1002.07
2018-12-21T04:38:30.471Z,1002.04
2018-12-21T04:39:30.389Z,1002.04
2018-12-21T04:40:30.375Z,1002.00
2018-12-21T04:41:30.418Z,1002.07
2018-12-21T04:42:30.353Z,1002.13
2018-12-21T04:43:30.342Z,1001.93
2018-12-21T04:44:30.372Z,1001.94
2018-12-21T04:45:30.330Z,1001.84
2018-12-21T04:46:30.337Z,1001.92
2018-12-21T04:47:30.320Z,1001.69
2018-12-21T04:48:30.335Z,1001.63
2018-12-21T04:49:30.365Z,1001.64
2018-12-21T04:50:30.402Z,1001.79
2018-12-21T04:51:30.262Z,1001.71
2018-12-21T04:52:30.246Z,1001.71
2018-12-21T04:53:30.240Z,1001.88
2018-12-21T04:54:30.295Z,1001.97
2018-12-21T04:55:30.275Z,1001.92
2018-12-21T04:56:30.288Z,1001.94
2018-12-21T04:57:30.196Z,1001.85
2018-12-21T04:58:30.200Z,1001.98
2018-12-21T04:59:30.223Z,1001.95
2018-12-21T05:00:30.167Z,1001.96
2018-12-21T05:01:30.178Z,1001.98
2018-12-21T05:02:30.136Z,1002.05
2018-12-21T05:03:30.131Z,1001.95
2018-12-21T05:04:30.136Z,1002.06
2018-12-21T05:05:30.165Z,1002.00
2018-12-21T05:06:30.185Z,1001.93
2018-12-21T05:07:30.084Z,1001.85
2018-12-21T05:08:30.083Z,1001.79
2018-12-21T05:09:30.066Z,1001.76
2018-12-21T05:10:30.067Z,1001.72
2018-12-21T05:11:30.185Z,1001.61
2018-12-21T05:12:30.031Z,1001.62
2018-12-21T05:13:30.025Z,1001.53
2018-12-21T05:14:30.012Z,1001.58
2018-12-21T05:15:30.005Z,1001.52
2018-12-21T05:16:30.030Z,1001.49
2018-12-21T05:17:29.987Z,1001.41
2018-12-21T05:18:30.027Z,1001.42
2018-12-21T05:19:29.962Z,1001.37
2018-12-21T05:20:30.013Z,1001.33
2018-12-21T05:21:29.962Z,1001.29
2018-12-21T05:22:29.937Z,1001.32
2018-12-21T05:23:29.950Z,1001.29
2018-12-21T05:24:29.905Z,1001.30
2018-12-21T05:25:29.936Z,1001.28
2018-12-21T05:26:29.950Z,1001.22
2018-12-21T05:27:29.939Z,1001.23
2018-12-21T05:28:29.857Z,1001.22
2018-12-21T05:29:29.846Z,1001.20
2018-12-21T05:30:29.846Z,1001.19
2018-12-21T05:31:29.830Z,1001.11
2018-12-21T05:32:29.866Z,1001.07
2018-12-21T05:33:29.827Z,1001.08
2018-12-21T05:34:29.799Z,1001.04
2018-12-21T05:35:29.799Z,1000.98
2018-12-21T05:36:29.778Z,1000.97
2018-12-21T05:37:29.801Z,1000.95
2018-12-21T05:38:29.779Z,1000.94
2018-12-21T05:39:29.762Z,1000.88
2018-12-21T05:40:29.732Z,1000.92
2018-12-21T05:41:29.735Z,1000.89
2018-12-21T05:42:29.717Z,1000.89
2018-12-21T05:43:29.743Z,1000.89
2018-12-21T05:44:29.688Z,1000.90
2018-12-21T05:45:29.674Z,1000.83
2018-12-21T05:46:29.667Z,1000.82
2018-12-21T05:47:29.711Z,1000.78
2018-12-21T05:48:29.657Z,1000.80
2018-12-21T05:49:29.681Z,1000.76
2018-12-21T05:50:29.631Z,1000.77
2018-12-21T05:51:29.610Z,1000.69
2018-12-21T05:52:29.601Z,1000.70
2018-12-21T05:53:29.614Z,1000.59
2018-12-21T05:54:29.612Z,1000.66
2018-12-21T05:55:29.567Z,1000.66
2018-12-21T05:56:29.568Z,1000.65
2018-12-21T05:57:29.574Z,1000.65
2018-12-21T05:58:29.534Z,1000.55
2018-12-21T05:59:29.565Z,1000.57
2018-12-21T06:00:29.591Z,1000.57
2018-12-21T06:01:29.515Z,1000.50
2018-12-21T06:02:29.496Z,1000.46
2018-12-21T06:03:29.482Z,1000.46
2018-12-21T06:04:29.480Z,1000.45
2018-12-21T06:05:29.546Z,1000.43
2018-12-21T06:06:29.467Z,1000.45
2018-12-21T06:07:29.436Z,1000.47
2018-12-21T06:08:29.429Z,1000.41
2018-12-21T06:09:29.452Z,1000.36
2018-12-21T06:10:29.490Z,1000.34
2018-12-21T06:11:29.443Z,1000.26
2018-12-21T06:12:29.384Z,1000.24
2018-12-21T06:13:29.371Z,1000.18
2018-12-21T06:14:29.376Z,1000.15
2018-12-21T06:15:29.350Z,1000.07
2018-12-21T06:16:29.368Z,1000.09
2018-12-21T06:17:29.426Z,999.98
2018-12-21T06:18:29.317Z,999.92
2018-12-21T06:19:29.488Z,999.92
2018-12-21T06:20:29.305Z,999.92
2018-12-21T06:21:29.329Z,999.78
2018-12-21T06:22:29.273Z,999.81
2018-12-21T06:23:29.299Z,999.83
2018-12-21T06:24:29.255Z,999.78
2018-12-21T06:25:29.243Z,999.74
2018-12-21T06:26:29.266Z,999.76
2018-12-21T06:27:30.467Z,999.74
2018-12-21T06:28:29.231Z,999.77
2018-12-21T06:29:29.256Z,999.77
2018-12-21T06:30:29.186Z,999.74
2018-12-21T06:31:29.187Z,999.74
2018-12-21T06:32:29.190Z,999.70
2018-12-21T06:33:29.166Z,999.65
2018-12-21T06:34:29.154Z,999.59
2018-12-21T06:35:29.147Z,999.59
2018-12-21T06:36:29.200Z,999.53
2018-12-21T06:37:29.143Z,999.58
2018-12-21T06:38:29.151Z,999.57
2018-12-21T06:39:29.089Z,999.55
2018-12-21T06:40:29.092Z,999.54
2018-12-21T06:41:29.105Z,999.58
2018-12-21T06:42:29.056Z,999.59
2018-12-21T06:43:29.071Z,999.63
2018-12-21T06:44:29.143Z,999.51
2018-12-21T06:45:29.024Z,999.56
2018-12-21T06:46:29.030Z,999.54
2018-12-21T06:47:29.000Z,999.55
2018-12-21T06:48:29.023Z,999.46
2018-12-21T06:49:29.030Z,999.42
2018-12-21T06:50:28.968Z,999.46
2018-12-21T06:51:28.974Z,999.47
2018-12-21T06:52:28.985Z,999.40
2018-12-21T06:53:28.942Z,999.42
2018-12-21T06:54:28.954Z,999.38
2018-12-21T06:55:28.919Z,999.40
2018-12-21T06:56:28.993Z,999.33
2018-12-21T06:57:28.900Z,999.30
2018-12-21T06:58:28.934Z,999.26
2018-12-21T06:59:28.911Z,999.22
2018-12-21T07:00:28.865Z,999.24
2018-12-21T07:01:28.853Z,999.18
2018-12-21T07:02:28.838Z,999.13
2018-12-21T07:03:28.828Z,999.11
2018-12-21T07:04:28.829Z,999.18
2018-12-21T07:05:28.835Z,999.16
2018-12-21T07:06:28.795Z,998.98
2018-12-21T07:07:28.895Z,998.99
2018-12-21T07:08:28.779Z,999.04
2018-12-21T07:09:28.777Z,998.97
2018-12-21T07:10:28.817Z,998.95
2018-12-21T07:11:28.753Z,998.96
2018-12-21T07:12:28.737Z,998.88
2018-12-21T07:13:28.719Z,998.90
2018-12-21T07:14:28.725Z,998.91
2018-12-21T07:15:28.715Z,998.88
2018-12-21T07:16:28.726Z,998.80
2018-12-21T07:17:28.688Z,998.79
2018-12-21T07:18:28.674Z,998.77
2018-12-21T07:19:28.681Z,998.75
2018-12-21T07:20:28.641Z,998.81
2018-12-21T07:21:28.632Z,998.76
2018-12-21T07:22:28.652Z,998.74
2018-12-21T07:23:28.613Z,998.74
2018-12-21T07:24:28.603Z,998.79
2018-12-21T07:25:28.594Z,998.72
2018-12-21T07:26:28.579Z,998.73
2018-12-21T07:27:28.593Z,998.71
2018-12-21T07:28:28.577Z,998.73
2018-12-21T07:29:28.572Z,998.67
2018-12-21T07:30:28.536Z,998.66
2018-12-21T07:31:28.538Z,998.74
2018-12-21T07:32:28.543Z,998.72
2018-12-21T07:33:28.511Z,998.66
2018-12-21T07:34:28.517Z,998.64
2018-12-21T07:35:28.487Z,998.67
2018-12-21T07:36:28.470Z,998.56
2018-12-21T07:37:28.556Z,998.57
2018-12-21T07:38:28.461Z,998.60
2018-12-21T07:39:28.477Z,998.59
2018-12-21T07:40:28.435Z,998.54
2018-12-21T07:41:28.414Z,998.50
2018-12-21T07:42:28.457Z,998.44
2018-12-21T07:43:28.440Z,998.47
2018-12-21T07:44:28.397Z,998.45
2018-12-21T07:45:28.410Z,998.45
2018-12-21T07:46:28.360Z,998.48
2018-12-21T07:47:28.413Z,998.43
2018-12-21T07:48:28.354Z,998.39
2018-12-21T07:49:28.375Z,998.36
2018-12-21T07:50:28.338Z,998.36
2018-12-21T07:51:28.320Z,998.34
2018-12-21T07:52:28.298Z,998.28
2018-12-21T07:53:35.690Z,998.18
2018-12-21T07:54:29.311Z,998.11
2018-12-21T07:55:28.278Z,997.99
2018-12-21T07:56:28.253Z,998.05
2018-12-21T07:57:28.271Z,998.01
2018-12-21T07:58:28.247Z,998.04
2018-12-21T07:59:28.270Z,997.94
2018-12-21T08:00:28.206Z,997.93
2018-12-21T08:01:28.226Z,997.97
2018-12-21T08:02:28.191Z,997.90
2018-12-21T08:03:28.197Z,997.79
2018-12-21T08:04:30.294Z,997.82
2018-12-21T08:05:28.154Z,997.83
2018-12-21T08:06:28.144Z,997.77
2018-12-21T08:07:28.131Z,997.77
2018-12-21T08:08:28.171Z,997.75
2018-12-21T08:09:28.136Z,997.71
2018-12-21T08:10:28.142Z,997.71
2018-12-21T08:11:28.221Z,997.64
2018-12-21T08:12:28.091Z,997.61
2018-12-21T08:13:28.071Z,997.58
2018-12-21T08:14:28.127Z,997.49
2018-12-21T08:15:28.069Z,997.45
2018-12-21T08:16:28.075Z,997.41
2018-12-21T08:17:28.028Z,997.30
2018-12-21T08:18:28.026Z,997.18
2018-12-21T08:19:28.010Z,997.09
2018-12-21T08:20:28.006Z,997.03
2018-12-21T08:21:28.027Z,996.80
2018-12-21T08:22:28.087Z,996.79
2018-12-21T08:23:27.960Z,996.64
2018-12-21T08:24:27.957Z,996.64
2018-12-21T08:25:27.947Z,996.64
2018-12-21T08:26:27.951Z,996.52
2018-12-21T08:27:27.944Z,996.51
2018-12-21T08:28:27.953Z,996.57
2018-12-21T08:29:27.892Z,996.61
2018-12-21T08:30:27.884Z,996.55
2018-12-21T08:31:28.065Z,996.58
2018-12-21T08:32:27.873Z,996.55
2018-12-21T08:33:27.858Z,996.55
2018-12-21T08:34:27.854Z,996.49
2018-12-21T08:35:27.827Z,996.51
2018-12-21T08:36:27.816Z,996.50
2018-12-21T08:37:27.835Z,996.57
2018-12-21T08:38:27.870Z,996.56
2018-12-21T08:39:27.812Z,996.56
2018-12-21T08:40:27.865Z,996.55
2018-12-21T08:41:27.766Z,996.45
2018-12-21T08:42:27.762Z,996.45
2018-12-21T08:43:27.766Z,996.51
2018-12-21T08:44:27.732Z,996.48
2018-12-21T08:45:27.723Z,996.43
2018-12-21T08:46:27.723Z,996.36
2018-12-21T08:47:27.803Z,996.41
2018-12-21T08:48:27.715Z,996.34
2018-12-21T08:49:27.693Z,996.35
2018-12-21T08:50:27.679Z,996.37
2018-12-21T08:51:27.679Z,996.28
2018-12-21T08:52:27.762Z,996.28
2018-12-21T08:53:27.680Z,996.27
2018-12-21T08:54:27.620Z,996.22
2018-12-21T08:55:27.616Z,996.22
2018-12-21T08:56:27.684Z,996.10
2018-12-21T08:57:27.595Z,996.13
2018-12-21T08:58:27.623Z,996.15
2018-12-21T08:59:27.567Z,996.18
2018-12-21T09:00:27.564Z,996.18
2018-12-21T09:01:27.547Z,996.13
2018-12-21T09:02:27.557Z,996.13
2018-12-21T09:03:27.523Z,996.18
2018-12-21T09:04:32.204Z,996.19
2018-12-21T09:05:28.507Z,996.14
2018-12-21T09:06:27.495Z,996.17
2018-12-21T09:07:27.486Z,996.15
2018-12-21T09:08:27.502Z,996.13
2018-12-21T09:09:27.482Z,996.04
2018-12-21T09:10:27.479Z,995.99
2018-12-21T09:11:27.450Z,996.02
2018-12-21T09:12:27.427Z,996.03
2018-12-21T09:13:27.419Z,996.05
2018-12-21T09:14:27.409Z,996.01
2018-12-21T09:15:27.432Z,995.97
2018-12-21T09:16:27.383Z,996.06
2018-12-21T09:17:27.375Z,996.04
2018-12-21T09:18:27.393Z,995.96
2018-12-21T09:19:27.357Z,996.01
2018-12-21T09:20:27.365Z,995.91
2018-12-21T09:21:27.333Z,996.03
2018-12-21T09:22:27.326Z,996.07
2018-12-21T09:23:27.309Z,996.13
2018-12-21T09:24:27.352Z,996.16
2018-12-21T09:25:27.330Z,996.12
2018-12-21T09:26:27.290Z,996.04
2018-12-21T09:27:27.339Z,996.12
2018-12-21T09:28:27.334Z,996.04
2018-12-21T09:29:27.242Z,996.06
2018-12-21T09:30:27.290Z,996.03
2018-12-21T09:31:27.236Z,996.05
2018-12-21T09:32:27.216Z,995.97
2018-12-21T09:33:27.252Z,996.02
2018-12-21T09:34:27.194Z,995.96
2018-12-21T09:35:27.181Z,995.86
2018-12-21T09:36:27.201Z,995.82
2018-12-21T09:37:27.190Z,995.74
2018-12-21T09:38:27.180Z,995.71
2018-12-21T09:39:27.140Z,995.71
2018-12-21T09:40:27.127Z,995.82
2018-12-21T09:41:27.124Z,995.66
2018-12-21T09:42:27.125Z,995.67
2018-12-21T09:43:27.092Z,995.60
2018-12-21T09:44:27.087Z,995.52
2018-12-21T09:45:27.078Z,995.54
2018-12-21T09:46:27.063Z,995.47
2018-12-21T09:47:27.118Z,995.47
2018-12-21T09:48:27.064Z,995.59
2018-12-21T09:49:27.028Z,995.56
2018-12-21T09:50:27.019Z,995.43
2018-12-21T09:51:27.009Z,995.47
2018-12-21T09:52:27.020Z,995.53
2018-12-21T09:53:26.986Z,995.56
2018-12-21T09:54:26.974Z,995.56
2018-12-21T09:55:27.045Z,995.58
2018-12-21T09:56:26.952Z,995.60
2018-12-21T09:57:26.979Z,995.58
2018-12-21T09:58:26.932Z,995.64
2018-12-21T09:59:26.928Z,995.57
2018-12-21T10:00:26.942Z,995.56
2018-12-21T10:01:26.920Z,995.48
2018-12-21T10:02:35.537Z,995.44
2018-12-21T10:03:27.906Z,995.37
2018-12-21T10:04:26.868Z,995.37
2018-12-21T10:05:26.869Z,995.42
2018-12-21T10:06:26.851Z,995.28
2018-12-21T10:07:27.660Z,995.28
2018-12-21T10:08:26.824Z,995.38
2018-12-21T10:09:26.842Z,995.43
2018-12-21T10:10:26.817Z,995.26
2018-12-21T10:11:26.808Z,995.34
2018-12-21T10:12:26.786Z,995.38
2018-12-21T10:13:26.783Z,995.36
2018-12-21T10:14:26.792Z,995.29
2018-12-21T10:15:26.748Z,995.38
2018-12-21T10:16:26.737Z,995.28
2018-12-21T10:17:26.730Z,995.28
2018-12-21T10:18:26.713Z,995.27
2018-12-21T10:19:26.733Z,995.25
2018-12-21T10:20:26.692Z,995.33
2018-12-21T10:21:26.696Z,995.34
2018-12-21T10:22:26.668Z,995.35
2018-12-21T10:23:26.699Z,995.34
2018-12-21T10:24:26.724Z,995.28
2018-12-21T10:25:26.652Z,995.19
2018-12-21T10:26:26.625Z,995.18
2018-12-21T10:27:26.624Z,995.10
2018-12-21T10:28:26.605Z,995.17
2018-12-21T10:29:26.592Z,995.24
2018-12-21T10:30:26.625Z,995.17
2018-12-21T10:31:26.574Z,995.16
2018-12-21T10:32:26.560Z,995.22
2018-12-21T10:33:28.356Z,995.23
2018-12-21T10:34:26.550Z,995.25
2018-12-21T10:35:26.527Z,995.31
2018-12-21T10:36:26.572Z,995.37
2018-12-21T10:37:26.513Z,995.26
2018-12-21T10:38:26.498Z,995.20
2018-12-21T10:39:26.494Z,995.32
2018-12-21T10:40:26.484Z,995.28
2018-12-21T10:41:26.496Z,995.23
2018-12-21T10:42:26.882Z,995.18
2018-12-21T10:43:26.760Z,995.12
2018-12-21T10:44:29.696Z,995.19
2018-12-21T10:45:26.523Z,995.29
2018-12-21T10:46:26.475Z,995.22
2018-12-21T10:47:26.404Z,995.29
2018-12-21T10:48:26.384Z,995.27
2018-12-21T10:49:26.373Z,995.25
2018-12-21T10:50:26.363Z,995.12
2018-12-21T10:51:26.374Z,995.14
2018-12-21T10:52:26.411Z,995.25
2018-12-21T10:53:26.330Z,995.18
2018-12-21T10:54:27.010Z,995.23
2018-12-21T10:55:26.319Z,995.32
2018-12-21T10:56:26.303Z,995.40
2018-12-21T10:57:26.297Z,995.25
2018-12-21T10:58:26.319Z,995.19
2018-12-21T10:59:26.275Z,995.18
2018-12-21T11:00:26.259Z,995.22
2018-12-21T11:01:26.256Z,995.21
2018-12-21T11:02:26.233Z,995.24
2018-12-21T11:03:26.287Z,995.14
2018-12-21T11:04:26.214Z,995.21
2018-12-21T11:05:26.203Z,995.22
2018-12-21T11:06:26.200Z,995.18
2018-12-21T11:07:26.204Z,995.20
2018-12-21T11:08:26.204Z,995.21
2018-12-21T11:09:26.161Z,995.20
2018-12-21T11:10:26.157Z,995.25
2018-12-21T11:11:26.137Z,995.09
2018-12-21T11:12:26.195Z,995.17
2018-12-21T11:13:26.160Z,995.17
2018-12-21T11:14:26.143Z,995.15
2018-12-21T11:15:26.103Z,995.19
2018-12-21T11:16:26.083Z,995.21
2018-12-21T11:17:26.076Z,995.13
2018-12-21T11:18:26.070Z,995.11
2018-12-21T11:19:26.085Z,995.10
2018-12-21T11:20:26.083Z,995.02
2018-12-21T11:21:26.030Z,995.10
2018-12-21T11:22:26.018Z,995.16
2018-12-21T11:23:26.012Z,995.14
2018-12-21T11:24:26.000Z,995.15
2018-12-21T11:25:26.046Z,995.18
2018-12-21T11:26:25.976Z,995.05
2018-12-21T11:27:25.969Z,994.99
2018-12-21T11:28:25.964Z,995.04
2018-12-21T11:29:25.957Z,995.11
2018-12-21T11:30:25.938Z,995.08
2018-12-21T11:31:25.945Z,995.06
2018-12-21T11:32:25.955Z,995.06
2018-12-21T11:33:25.904Z,995.08
2018-12-21T11:34:25.905Z,994.99
2018-12-21T11:35:25.895Z,995.04
2018-12-21T11:36:25.901Z,995.06
2018-12-21T11:37:25.857Z,995.07
2018-12-21T11:38:25.902Z,995.15
2018-12-21T11:39:25.834Z,995.08
2018-12-21T11:40:25.837Z,995.10
2018-12-21T11:41:25.813Z,995.13
2018-12-21T11:42:25.824Z,995.16
2018-12-21T11:43:25.808Z,995.13
2018-12-21T11:44:25.785Z,995.21
2018-12-21T11:45:25.852Z,995.16
2018-12-21T11:46:25.784Z,995.17
2018-12-21T11:47:25.774Z,995.19
2018-12-21T11:48:25.767Z,995.22
2018-12-21T11:49:25.733Z,995.17
2018-12-21T11:50:25.715Z,995.18
2018-12-21T11:51:25.730Z,995.12
2018-12-21T11:52:25.736Z,995.21
2018-12-21T11:53:25.709Z,995.25
2018-12-21T11:54:25.707Z,995.23
2018-12-21T11:55:25.699Z,995.13
2018-12-21T11:56:25.734Z,995.15
2018-12-21T11:57:25.651Z,995.25
2018-12-21T11:58:25.693Z,995.19
2018-12-21T11:59:25.635Z,995.12
2018-12-21T12:00:25.626Z,995.17
2018-12-21T12:01:25.599Z,995.10
2018-12-21T12:02:25.587Z,995.22
2018-12-21T12:03:25.656Z,995.14
2018-12-21T12:04:25.565Z,995.21
2018-12-21T12:05:25.554Z,995.20
2018-12-21T12:06:25.567Z,995.16
2018-12-21T12:07:25.534Z,995.10
2018-12-21T12:08:25.531Z,995.22
2018-12-21T12:09:25.566Z,995.16
2018-12-21T12:10:25.589Z,995.17
2018-12-21T12:11:25.514Z,995.12
2018-12-21T12:12:25.501Z,995.11
2018-12-21T12:13:25.466Z,995.16
2018-12-21T12:14:25.469Z,995.16
2018-12-21T12:15:25.467Z,995.19
2018-12-21T12:16:25.736Z,995.22